Time;durP1;ratioP1;P1;durP2;ratioP2;P2;SDS_P1;SDS_P2;PMS_P1;PMS_P2;Temp;Humidity;BMP_temperature;BMP_pressure;BME280_temperature;BME280_humidity;BME280_pressure;Samples;Min_cycle;Max_cycle;Signal;HPM_P1;HPM_P2
2023/06/29 00:01:04;;;;;;;0.20;0.20;;;19.20;99.90;;;;;;5049813;28;20049;-76
2023/06/29 00:03:34;;;;;;;0.20;0.20;;;19.30;99.90;;;;;;5033009;28;20124;-77
2023/06/29 00:06:01;;;;;;;0.20;0.20;;;19.30;99.90;;;;;;5021503;28;20083;-76
2023/06/29 00:08:28;;;;;;;0.20;0.20;;;19.20;99.90;;;;;;5031440;28;20048;-77
2023/06/29 00:10:55;;;;;;;0.38;0.38;;;19.20;99.90;;;;;;5044968;28;20037;-77
2023/06/29 00:13:22;;;;;;;0.20;0.20;;;19.20;99.90;;;;;;5050621;28;20049;-76
2023/06/29 00:15:48;;;;;;;0.20;0.20;;;19.20;99.90;;;;;;5048588;28;20083;-76
2023/06/29 00:18:18;;;;;;;0.10;0.10;;;19.10;99.90;;;;;;5034263;28;20072;-77
2023/06/29 00:20:44;;;;;;;0.20;0.20;;;19.20;99.90;;;;;;5031325;28;20504;-76
2023/06/29 00:23:10;;;;;;;0.20;0.20;;;19.20;99.90;;;;;;5050193;28;20079;-77
2023/06/29 00:25:36;;;;;;;0.20;0.20;;;19.10;99.90;;;;;;5031356;28;20041;-76
2023/06/29 00:28:02;;;;;;;0.10;0.10;;;19.20;99.90;;;;;;5029753;28;20045;-76
2023/06/29 00:30:28;;;;;;;0.20;0.20;;;19.20;99.90;;;;;;5051164;28;20044;-77
2023/06/29 00:32:54;;;;;;;0.20;0.20;;;19.10;99.90;;;;;;5048534;28;20179;-76
2023/06/29 00:35:19;;;;;;;0.20;0.20;;;19.10;99.90;;;;;;5047279;28;20091;-77
2023/06/29 00:37:45;;;;;;;0.10;0.10;;;19.10;99.90;;;;;;5045373;28;20048;-76
2023/06/29 00:40:11;;;;;;;0.20;0.20;;;19.20;99.90;;;;;;5047116;28;20484;-76
2023/06/29 00:42:37;;;;;;;0.20;0.20;;;19.20;99.90;;;;;;5049860;28;20629;-77
2023/06/29 00:45:04;;;;;;;0.20;0.20;;;19.10;99.90;;;;;;5048737;28;20073;-76
2023/06/29 00:47:31;;;;;;;0.10;0.10;;;19.20;99.90;;;;;;5033403;28;20049;-77
2023/06/29 00:49:57;;;;;;;0.20;0.20;;;19.20;99.90;;;;;;5030227;28;20060;-76
2023/06/29 00:52:23;;;;;;;0.20;0.20;;;19.20;99.90;;;;;;5050455;28;20497;-76
2023/06/29 00:54:49;;;;;;;0.20;0.20;;;19.20;99.90;;;;;;5032002;28;20076;-76
2023/06/29 00:57:15;;;;;;;0.20;0.20;;;19.20;99.90;;;;;;5031963;28;20048;-76
2023/06/29 00:59:41;;;;;;;0.20;0.20;;;19.20;99.90;;;;;;5031301;28;20719;-76
2023/06/29 01:02:10;;;;;;;0.10;0.10;;;19.20;99.90;;;;;;5030051;28;20063;-77
2023/06/29 01:04:37;;;;;;;0.20;0.20;;;19.20;99.90;;;;;;5030166;28;20045;-76
2023/06/29 01:07:30;;;;;;;0.20;0.20;;;19.10;99.90;;;;;;5021996;28;20103;-76
2023/06/29 01:09:58;;;;;;;0.20;0.20;;;19.10;99.90;;;;;;5018694;28;20452;-77
2023/06/29 01:12:25;;;;;;;0.20;0.20;;;19.10;99.90;;;;;;5028222;28;20076;-76
2023/06/29 01:14:51;;;;;;;0.20;0.20;;;19.20;99.90;;;;;;5029756;28;20037;-76
2023/06/29 01:17:22;;;;;;;0.10;0.10;;;19.20;99.90;;;;;;5023571;28;20068;-76
2023/06/29 01:19:49;;;;;;;0.20;0.20;;;19.20;99.90;;;;;;5048991;28;20068;-77
2023/06/29 01:22:23;;;;;;;0.20;0.20;;;19.20;99.90;;;;;;5030476;28;20060;-76
2023/06/29 01:24:49;;;;;;;0.20;0.20;;;19.20;99.90;;;;;;5032457;28;20081;-77
2023/06/29 01:27:16;;;;;;;0.20;0.20;;;19.20;99.90;;;;;;5028166;28;20049;-77
2023/06/29 01:29:42;;;;;;;0.10;0.10;;;19.30;99.90;;;;;;5044596;28;20144;-76
2023/06/29 01:32:10;;;;;;;0.20;0.20;;;19.20;99.90;;;;;;5039631;28;20135;-77
2023/06/29 01:34:36;;;;;;;0.20;0.20;;;19.20;99.90;;;;;;5041299;28;20537;-76
2023/06/29 01:37:16;;;;;;;0.20;0.20;;;19.20;99.90;;;;;;5046411;28;20045;-77
2023/06/29 01:39:53;;;;;;;0.20;0.20;;;19.20;99.90;;;;;;5044376;28;20041;-76
2023/06/29 01:42:21;;;;;;;0.20;0.20;;;19.20;99.90;;;;;;5045052;28;20567;-75
2023/06/29 01:44:48;;;;;;;0.20;0.20;;;19.20;99.90;;;;;;5049807;28;20041;-77
2023/06/29 01:47:15;;;;;;;0.20;0.20;;;19.20;99.90;;;;;;5045978;28;20044;-77
2023/06/29 01:49:42;;;;;;;0.20;0.20;;;19.20;99.90;;;;;;5045941;28;20053;-76
2023/06/29 01:52:08;;;;;;;0.20;0.20;;;19.20;99.90;;;;;;5048197;28;20076;-77
2023/06/29 01:54:34;;;;;;;0.20;0.20;;;19.20;99.90;;;;;;5045689;28;20044;-76
2023/06/29 01:57:00;;;;;;;0.20;0.20;;;19.20;99.90;;;;;;5042971;28;20045;-76
2023/06/29 01:59:26;;;;;;;0.10;0.10;;;19.10;99.90;;;;;;5032872;28;20068;-76
2023/06/29 02:01:52;;;;;;;0.20;0.20;;;19.10;99.90;;;;;;5046401;28;20431;-77
2023/06/29 02:04:18;;;;;;;0.20;0.20;;;19.10;99.90;;;;;;5045816;28;20101;-77
2023/06/29 02:06:43;;;;;;;0.20;0.20;;;19.10;99.90;;;;;;5045944;28;20037;-77
2023/06/29 02:09:09;;;;;;;0.20;0.20;;;19.10;99.90;;;;;;5045137;28;20045;-77
2023/06/29 02:11:35;;;;;;;0.20;0.20;;;19.10;99.90;;;;;;5039226;28;20400;-77
2023/06/29 02:14:01;;;;;;;0.10;0.10;;;19.10;99.90;;;;;;5059323;28;20477;-77
2023/06/29 02:16:26;;;;;;;0.20;0.20;;;19.10;99.90;;;;;;5048190;28;20413;-76
2023/06/29 02:18:52;;;;;;;0.30;0.30;;;19.10;99.90;;;;;;5047501;28;20036;-77
2023/06/29 02:21:18;;;;;;;0.20;0.20;;;19.10;99.90;;;;;;5049666;28;20041;-77
2023/06/29 02:23:43;;;;;;;0.20;0.20;;;19.10;99.90;;;;;;5047815;28;20049;-77
2023/06/29 02:26:09;;;;;;;0.20;0.20;;;19.10;99.90;;;;;;5048046;28;20040;-77
2023/06/29 02:28:34;;;;;;;0.20;0.20;;;19.10;99.90;;;;;;5044903;28;20041;-76
2023/06/29 02:31:00;;;;;;;0.22;0.20;;;19.10;99.90;;;;;;5045640;28;20053;-77
2023/06/29 02:33:26;;;;;;;0.20;0.20;;;19.10;99.90;;;;;;5042820;28;20064;-77
2023/06/29 02:35:51;;;;;;;0.20;0.20;;;19.10;99.90;;;;;;5046792;28;20048;-77
2023/06/29 02:38:17;;;;;;;0.20;0.20;;;19.00;99.90;;;;;;5048737;28;20564;-77
2023/06/29 02:40:43;;;;;;;0.10;0.10;;;19.00;99.90;;;;;;5047183;28;20056;-76
2023/06/29 02:43:08;;;;;;;0.20;0.20;;;19.00;99.90;;;;;;5045356;28;20148;-76
2023/06/29 02:45:34;;;;;;;0.20;0.20;;;19.10;99.90;;;;;;5047591;28;20567;-76
2023/06/29 02:48:00;;;;;;;0.20;0.20;;;19.00;99.90;;;;;;5044369;28;20425;-77
2023/06/29 02:50:25;;;;;;;0.20;0.20;;;19.00;99.90;;;;;;5046068;28;20045;-77
2023/06/29 02:52:51;;;;;;;0.17;0.17;;;19.00;99.90;;;;;;5046929;28;20055;-77
2023/06/29 02:55:17;;;;;;;0.20;0.20;;;19.00;99.90;;;;;;5045492;28;20044;-77
2023/06/29 02:57:42;;;;;;;0.10;0.10;;;19.10;99.90;;;;;;5045526;28;20040;-76
2023/06/29 03:00:09;;;;;;;0.20;0.20;;;19.10;99.90;;;;;;5049236;28;20060;-77
2023/06/29 03:02:35;;;;;;;0.10;0.10;;;19.00;99.90;;;;;;5046033;28;20041;-76
2023/06/29 03:05:00;;;;;;;0.20;0.20;;;19.00;99.90;;;;;;5046557;28;20455;-77
2023/06/29 03:07:26;;;;;;;0.20;0.20;;;19.00;99.90;;;;;;5048429;28;20047;-76
2023/06/29 03:09:52;;;;;;;0.20;0.20;;;19.00;99.90;;;;;;5046865;28;20064;-76
2023/06/29 03:12:21;;;;;;;0.20;0.20;;;19.00;99.90;;;;;;5043211;28;20099;-76
2023/06/29 03:14:47;;;;;;;0.20;0.20;;;19.00;99.90;;;;;;5052261;28;20041;-76
2023/06/29 03:17:14;;;;;;;0.20;0.20;;;19.00;99.90;;;;;;5051189;28;20047;-77
2023/06/29 03:19:40;;;;;;;0.20;0.20;;;19.00;99.90;;;;;;5050887;28;20492;-77
2023/06/29 03:22:06;;;;;;;0.20;0.20;;;19.00;99.90;;;;;;5049617;28;20055;-76
2023/06/29 03:24:32;;;;;;;0.10;0.10;;;19.00;99.90;;;;;;5049194;28;20396;-76
2023/06/29 03:26:57;;;;;;;0.20;0.20;;;19.00;99.90;;;;;;5052575;28;20052;-77
2023/06/29 03:29:23;;;;;;;0.10;0.10;;;19.00;99.90;;;;;;5050843;28;20069;-76
2023/06/29 03:31:49;;;;;;;0.20;0.20;;;19.00;99.90;;;;;;5050268;28;20049;-77
2023/06/29 03:34:14;;;;;;;0.10;0.10;;;18.90;99.90;;;;;;5049589;28;20053;-77
2023/06/29 03:36:40;;;;;;;0.20;0.20;;;19.00;99.90;;;;;;5053629;28;20052;-76
2023/06/29 03:39:06;;;;;;;0.20;0.20;;;19.00;99.90;;;;;;5049586;28;20666;-77
2023/06/29 03:41:31;;;;;;;0.20;0.20;;;19.00;99.90;;;;;;5050114;28;20542;-76
2023/06/29 03:43:57;;;;;;;0.20;0.20;;;19.00;99.90;;;;;;5046123;28;20040;-77
2023/06/29 03:46:24;;;;;;;0.20;0.20;;;19.00;99.90;;;;;;5051330;28;20044;-76
2023/06/29 03:48:49;;;;;;;0.20;0.20;;;19.00;99.90;;;;;;5052026;28;20041;-77
2023/06/29 03:51:15;;;;;;;0.20;0.20;;;19.00;99.90;;;;;;5046756;28;20542;-76
2023/06/29 03:53:41;;;;;;;0.20;0.20;;;19.00;99.90;;;;;;5052490;28;20048;-76
2023/06/29 03:56:07;;;;;;;0.20;0.20;;;19.00;99.90;;;;;;5051514;28;20796;-76
2023/06/29 03:58:32;;;;;;;0.20;0.20;;;19.00;99.90;;;;;;5051654;28;20079;-76
2023/06/29 04:00:58;;;;;;;0.20;0.20;;;19.00;99.90;;;;;;5049921;28;20498;-76
2023/06/29 04:03:24;;;;;;;0.20;0.20;;;19.00;99.90;;;;;;5050562;28;20044;-76
2023/06/29 04:05:50;;;;;;;0.20;0.20;;;19.10;99.90;;;;;;5052125;28;20073;-76
2023/06/29 04:08:15;;;;;;;0.10;0.10;;;19.10;99.90;;;;;;5049559;28;20488;-76
2023/06/29 04:10:41;;;;;;;0.20;0.20;;;19.10;99.90;;;;;;5050152;28;20166;-76
2023/06/29 04:13:07;;;;;;;0.20;0.20;;;19.10;99.90;;;;;;5043545;28;20669;-76
2023/06/29 04:15:32;;;;;;;0.20;0.20;;;19.20;99.90;;;;;;5044759;28;20529;-77
2023/06/29 04:17:58;;;;;;;0.20;0.20;;;19.10;99.90;;;;;;5050415;28;20045;-76
2023/06/29 04:20:24;;;;;;;0.20;0.20;;;19.20;99.90;;;;;;5050243;28;20132;-77
2023/06/29 04:22:50;;;;;;;0.20;0.20;;;19.20;99.90;;;;;;5045968;28;20048;-76
2023/06/29 04:25:15;;;;;;;0.20;0.20;;;19.10;99.90;;;;;;5050145;28;20060;-77
2023/06/29 04:27:42;;;;;;;0.20;0.20;;;19.20;99.90;;;;;;5047425;28;20048;-77
2023/06/29 04:30:11;;;;;;;0.20;0.20;;;19.20;99.90;;;;;;5047641;28;20068;-76
2023/06/29 04:32:37;;;;;;;0.20;0.20;;;19.20;99.90;;;;;;5050236;28;20937;-77
2023/06/29 04:35:03;;;;;;;0.20;0.20;;;19.20;99.90;;;;;;5030758;28;20045;-77
2023/06/29 04:37:36;;;;;;;0.20;0.20;;;19.20;99.90;;;;;;5031957;28;20536;-77
2023/06/29 04:40:06;;;;;;;0.10;0.10;;;19.20;99.90;;;;;;5048425;28;20044;-76
2023/06/29 04:42:32;;;;;;;0.20;0.20;;;19.20;99.90;;;;;;5031134;28;20132;-76
2023/06/29 04:45:00;;;;;;;0.20;0.20;;;19.20;99.90;;;;;;5031969;28;20131;-77
2023/06/29 04:47:32;;;;;;;0.20;0.20;;;19.20;99.90;;;;;;5051970;28;20040;-77
2023/06/29 04:49:57;;;;;;;0.28;0.28;;;19.20;99.90;;;;;;5031012;28;20055;-77
2023/06/29 04:52:23;;;;;;;0.20;0.20;;;19.30;99.90;;;;;;5031456;28;20464;-76
2023/06/29 04:54:49;;;;;;;0.20;0.20;;;19.30;99.90;;;;;;5031248;28;20076;-76
2023/06/29 04:57:14;;;;;;;0.20;0.20;;;19.30;99.90;;;;;;5029762;28;20044;-77
2023/06/29 04:59:40;;;;;;;0.20;0.20;;;19.30;99.90;;;;;;5046891;28;20084;-78
2023/06/29 05:02:06;;;;;;;0.20;0.20;;;19.30;99.90;;;;;;5043274;28;20476;-76
2023/06/29 05:04:36;;;;;;;0.20;0.20;;;19.30;99.90;;;;;;5044910;28;20090;-77
2023/06/29 05:07:04;;;;;;;0.20;0.20;;;19.40;99.90;;;;;;5014680;28;20118;-77
2023/06/29 05:09:30;;;;;;;0.20;0.20;;;19.40;99.90;;;;;;5050989;28;20033;-79
2023/06/29 05:11:56;;;;;;;0.20;0.20;;;19.50;99.90;;;;;;5029619;28;20182;-78
2023/06/29 05:14:21;;;;;;;0.20;0.20;;;19.50;99.90;;;;;;5023904;28;20038;-77
2023/06/29 05:16:47;;;;;;;0.20;0.20;;;19.50;99.90;;;;;;5031884;28;20132;-77
2023/06/29 05:19:12;;;;;;;0.20;0.20;;;19.50;99.90;;;;;;5048603;28;20124;-77
2023/06/29 05:21:38;;;;;;;0.20;0.20;;;19.50;99.90;;;;;;5051664;28;20041;-77
2023/06/29 05:24:04;;;;;;;0.10;0.10;;;19.50;99.90;;;;;;5046898;28;20049;-78
2023/06/29 05:26:30;;;;;;;0.20;0.20;;;19.50;99.90;;;;;;5050684;28;20393;-78
2023/06/29 05:28:57;;;;;;;0.20;0.20;;;19.60;99.90;;;;;;5048634;28;20094;-77
2023/06/29 05:31:23;;;;;;;0.20;0.20;;;19.60;99.90;;;;;;5047302;28;20102;-78
2023/06/29 05:33:49;;;;;;;0.10;0.10;;;19.60;99.90;;;;;;5049787;28;20041;-78
2023/06/29 05:36:14;;;;;;;0.20;0.20;;;19.60;99.90;;;;;;5049281;28;20079;-77
2023/06/29 05:38:40;;;;;;;0.20;0.20;;;19.60;99.90;;;;;;5030097;28;20045;-78
2023/06/29 05:41:06;;;;;;;0.20;0.20;;;19.60;99.90;;;;;;5049096;28;20088;-78
2023/06/29 05:43:31;;;;;;;0.20;0.20;;;19.70;99.90;;;;;;5047794;28;20098;-78
2023/06/29 05:45:57;;;;;;;0.20;0.20;;;19.70;99.90;;;;;;5034299;28;20060;-77
2023/06/29 05:48:23;;;;;;;0.20;0.20;;;19.80;99.90;;;;;;5032396;28;20045;-78
2023/06/29 05:50:48;;;;;;;0.17;0.17;;;19.80;99.90;;;;;;5031649;28;20048;-78
2023/06/29 05:53:14;;;;;;;0.20;0.20;;;19.80;99.90;;;;;;5025904;28;20123;-78
2023/06/29 05:55:40;;;;;;;0.20;0.20;;;19.80;99.90;;;;;;5031100;28;20055;-78
2023/06/29 05:58:05;;;;;;;0.20;0.20;;;19.90;99.90;;;;;;5045168;28;20060;-78
2023/06/29 06:00:31;;;;;;;0.20;0.20;;;19.90;99.90;;;;;;5024024;28;20037;-77
2023/06/29 06:02:57;;;;;;;0.20;0.20;;;20.00;99.90;;;;;;5049063;28;20082;-79
2023/06/29 06:05:22;;;;;;;0.10;0.10;;;20.00;99.90;;;;;;5028474;28;20036;-79
2023/06/29 06:07:48;;;;;;;0.20;0.20;;;20.00;99.90;;;;;;5029013;28;20034;-80
2023/06/29 06:10:14;;;;;;;0.20;0.20;;;20.00;99.90;;;;;;5046177;28;20124;-79
2023/06/29 06:12:39;;;;;;;0.20;0.20;;;20.10;99.90;;;;;;5031087;28;20056;-79
2023/06/29 06:15:07;;;;;;;0.20;0.20;;;20.10;99.90;;;;;;5025800;28;20504;-79
2023/06/29 06:17:33;;;;;;;0.20;0.20;;;20.20;99.90;;;;;;5015724;28;20063;-79
2023/06/29 06:19:58;;;;;;;0.20;0.20;;;20.20;99.90;;;;;;5032306;28;20052;-78
2023/06/29 06:22:24;;;;;;;0.20;0.20;;;20.30;99.90;;;;;;5045104;28;20528;-77
2023/06/29 06:24:50;;;;;;;0.10;0.10;;;20.30;99.90;;;;;;5044040;28;20130;-78
2023/06/29 06:27:16;;;;;;;0.20;0.20;;;20.40;99.90;;;;;;5041425;28;20531;-77
2023/06/29 06:29:41;;;;;;;0.20;0.20;;;20.40;99.90;;;;;;5045630;28;20086;-78
2023/06/29 06:32:07;;;;;;;0.20;0.20;;;20.40;99.90;;;;;;5046743;28;20060;-78
2023/06/29 06:34:33;;;;;;;0.20;0.20;;;20.50;99.90;;;;;;5044982;28;20033;-77
2023/06/29 06:36:58;;;;;;;0.20;0.20;;;20.50;99.90;;;;;;5027108;28;20053;-77
2023/06/29 06:39:24;;;;;;;0.20;0.20;;;20.50;99.90;;;;;;5029106;28;20057;-78
2023/06/29 06:41:50;;;;;;;0.20;0.20;;;20.50;99.90;;;;;;5043103;28;20037;-77
2023/06/29 06:44:16;;;;;;;0.20;0.20;;;20.50;99.90;;;;;;5017316;28;20080;-77
2023/06/29 06:46:41;;;;;;;0.20;0.20;;;20.50;99.90;;;;;;5028838;28;20053;-78
2023/06/29 06:49:07;;;;;;;0.20;0.20;;;20.60;99.90;;;;;;5026702;28;20052;-77
2023/06/29 06:51:33;;;;;;;0.20;0.20;;;20.60;99.90;;;;;;5046171;28;20754;-77
2023/06/29 06:53:58;;;;;;;0.20;0.20;;;20.60;99.90;;;;;;5025006;28;20135;-77
2023/06/29 06:56:24;;;;;;;0.20;0.20;;;20.60;99.90;;;;;;5044121;28;20042;-77
2023/06/29 06:58:50;;;;;;;0.20;0.20;;;20.60;99.90;;;;;;5046713;28;20493;-77
2023/06/29 07:01:16;;;;;;;0.20;0.20;;;20.70;99.90;;;;;;5027245;28;20052;-77
2023/06/29 07:03:42;;;;;;;0.30;0.30;;;20.70;99.90;;;;;;5031340;28;20048;-78
2023/06/29 07:06:07;;;;;;;0.10;0.10;;;20.70;99.90;;;;;;5030970;28;20098;-77
2023/06/29 07:08:35;;;;;;;0.20;0.20;;;20.70;99.90;;;;;;5046081;28;20036;-77
2023/06/29 07:11:01;;;;;;;0.20;0.20;;;20.70;99.90;;;;;;5028693;28;20049;-77
2023/06/29 07:13:27;;;;;;;0.50;0.30;;;20.70;99.90;;;;;;5045638;28;20072;-77
2023/06/29 07:15:53;;;;;;;0.20;0.20;;;20.70;99.90;;;;;;5025898;28;20507;-78
2023/06/29 07:18:20;;;;;;;0.20;0.20;;;20.70;99.90;;;;;;5027898;28;20080;-77
2023/06/29 07:20:48;;;;;;;0.20;0.20;;;20.80;99.90;;;;;;5027636;28;20045;-77
2023/06/29 07:23:18;;;;;;;0.40;0.40;;;20.80;99.90;;;;;;5025326;28;20052;-77
2023/06/29 07:25:43;;;;;;;0.20;0.20;;;20.80;99.90;;;;;;5029125;28;20128;-78
2023/06/29 07:28:09;;;;;;;0.20;0.20;;;20.80;99.90;;;;;;5047591;28;20115;-77
2023/06/29 07:30:35;;;;;;;0.20;0.20;;;20.90;99.90;;;;;;5029660;28;20044;-78
2023/06/29 07:33:01;;;;;;;0.20;0.20;;;20.90;99.90;;;;;;5008858;28;20061;-78
2023/06/29 07:35:26;;;;;;;0.20;0.20;;;20.90;99.90;;;;;;5012055;28;20104;-77
2023/06/29 07:37:52;;;;;;;0.20;0.20;;;21.00;99.90;;;;;;5010668;28;20053;-78
2023/06/29 07:40:19;;;;;;;0.32;0.32;;;21.00;99.90;;;;;;5008250;28;20045;-78
2023/06/29 07:42:45;;;;;;;0.20;0.20;;;21.00;99.90;;;;;;5011887;28;20124;-79
2023/06/29 07:45:12;;;;;;;1.25;0.32;;;21.00;99.90;;;;;;5027021;28;20117;-77
2023/06/29 07:47:38;;;;;;;0.20;0.20;;;20.90;99.90;;;;;;5011276;28;20043;-76
2023/06/29 07:50:15;;;;;;;0.20;0.20;;;20.90;99.90;;;;;;5012314;28;20041;-76
2023/06/29 07:52:41;;;;;;;0.20;0.20;;;21.00;99.90;;;;;;5011016;28;20050;-78
2023/06/29 07:55:08;;;;;;;0.20;0.20;;;20.90;99.90;;;;;;5011430;28;20053;-78
2023/06/29 07:57:35;;;;;;;0.20;0.20;;;20.90;99.90;;;;;;5011240;28;20049;-77
2023/06/29 08:00:08;;;;;;;0.20;0.20;;;20.90;99.90;;;;;;5031400;28;20046;-77
2023/06/29 08:02:34;;;;;;;0.20;0.20;;;20.90;99.90;;;;;;5032402;28;20128;-78
2023/06/29 08:05:00;;;;;;;0.17;0.17;;;20.90;99.90;;;;;;5032610;28;20121;-78
2023/06/29 08:07:26;;;;;;;0.20;0.20;;;20.90;99.90;;;;;;5014339;28;20517;-78
2023/06/29 08:09:51;;;;;;;0.20;0.20;;;20.90;99.90;;;;;;5022501;28;20049;-78
2023/06/29 08:12:30;;;;;;;0.20;0.20;;;20.90;99.90;;;;;;4994832;28;20085;-78
2023/06/29 08:14:56;;;;;;;0.20;0.20;;;20.90;99.90;;;;;;5019128;28;20452;-78
2023/06/29 08:17:33;;;;;;;0.20;0.20;;;20.90;99.90;;;;;;5019593;28;20054;-77
2023/06/29 08:19:59;;;;;;;0.20;0.20;;;20.90;99.90;;;;;;4993738;28;20571;-78
2023/06/29 08:22:25;;;;;;;0.20;0.20;;;20.90;99.90;;;;;;5012498;28;20041;-78
2023/06/29 08:24:51;;;;;;;0.20;0.20;;;20.90;99.90;;;;;;4997845;28;20374;-78
2023/06/29 08:27:20;;;;;;;0.20;0.20;;;20.90;99.90;;;;;;5031193;28;20057;-78
2023/06/29 08:29:50;;;;;;;0.20;0.20;;;20.90;99.90;;;;;;5032576;28;20037;-78
2023/06/29 08:32:15;;;;;;;0.20;0.20;;;20.90;99.90;;;;;;5035265;28;20155;-77
2023/06/29 08:34:41;;;;;;;0.20;0.20;;;21.00;99.90;;;;;;5050034;28;20473;-78
2023/06/29 08:37:07;;;;;;;0.20;0.20;;;21.00;99.90;;;;;;5050930;28;20060;-78
2023/06/29 08:39:32;;;;;;;0.20;0.20;;;21.10;99.90;;;;;;5051206;28;20071;-78
2023/06/29 08:41:58;;;;;;;0.20;0.20;;;21.20;99.90;;;;;;5049037;28;20132;-77
2023/06/29 08:44:24;;;;;;;0.20;0.20;;;21.20;99.90;;;;;;5050269;28;20045;-77
2023/06/29 08:46:50;;;;;;;0.20;0.20;;;21.30;99.90;;;;;;5050049;28;20032;-76
2023/06/29 08:49:20;;;;;;;0.20;0.20;;;21.40;99.90;;;;;;5050681;28;20098;-77
2023/06/29 08:51:48;;;;;;;0.20;0.20;;;21.40;99.90;;;;;;5050413;28;20036;-78
2023/06/29 08:54:15;;;;;;;0.20;0.20;;;21.40;99.90;;;;;;5050390;28;20511;-77
2023/06/29 08:56:42;;;;;;;0.20;0.20;;;21.40;99.90;;;;;;5049813;28;20103;-78
2023/06/29 08:59:08;;;;;;;0.20;0.20;;;21.50;99.90;;;;;;5049916;28;20056;-78
2023/06/29 09:01:34;;;;;;;0.20;0.20;;;21.50;99.90;;;;;;5050328;28;20033;-78
2023/06/29 09:04:00;;;;;;;0.20;0.20;;;21.50;99.90;;;;;;5048776;28;20060;-78
2023/06/29 09:06:26;;;;;;;0.20;0.20;;;21.60;99.90;;;;;;5049442;28;20048;-78
2023/06/29 09:08:52;;;;;;;0.20;0.20;;;21.60;99.90;;;;;;5062606;28;20048;-78
2023/06/29 09:11:18;;;;;;;0.20;0.20;;;21.60;99.90;;;;;;5048890;28;20671;-77
2023/06/29 09:13:46;;;;;;;0.20;0.20;;;21.70;99.90;;;;;;5047810;28;20049;-77
2023/06/29 09:16:15;;;;;;;0.20;0.20;;;21.70;99.90;;;;;;5049987;28;20037;-78
2023/06/29 09:18:42;;;;;;;0.20;0.20;;;21.70;99.90;;;;;;5039057;28;20108;-79
2023/06/29 09:21:08;;;;;;;0.20;0.20;;;21.70;99.90;;;;;;5045339;28;20037;-78
2023/06/29 09:23:42;;;;;;;0.20;0.20;;;21.70;99.90;;;;;;5048645;28;20051;-78
2023/06/29 09:26:08;;;;;;;0.20;0.20;;;21.70;99.90;;;;;;5050236;28;20502;-78
2023/06/29 09:28:37;;;;;;;0.90;0.45;;;21.70;99.90;;;;;;5048469;28;20044;-79
2023/06/29 09:31:08;;;;;;;0.20;0.20;;;21.70;99.90;;;;;;5049718;28;20136;-78
2023/06/29 09:33:34;;;;;;;0.65;0.65;;;21.70;99.90;;;;;;5029599;28;20049;-78
2023/06/29 09:36:06;;;;;;;0.20;0.20;;;21.70;99.90;;;;;;5013017;28;20051;-78
2023/06/29 09:38:32;;;;;;;0.20;0.20;;;21.80;99.90;;;;;;5030298;28;20034;-78
2023/06/29 09:40:59;;;;;;;0.20;0.20;;;21.80;99.90;;;;;;5042078;28;20056;-77
2023/06/29 09:43:29;;;;;;;0.22;0.22;;;21.80;99.90;;;;;;5031552;28;20048;-78
2023/06/29 09:46:06;;;;;;;0.25;0.25;;;21.80;99.90;;;;;;5048133;28;20041;-78
2023/06/29 09:48:32;;;;;;;0.30;0.30;;;21.90;99.90;;;;;;5050245;28;20052;-78
2023/06/29 09:50:57;;;;;;;0.20;0.20;;;21.90;99.90;;;;;;5050614;28;20669;-78
2023/06/29 09:53:33;;;;;;;0.20;0.20;;;21.90;99.90;;;;;;5048748;28;20052;-77
2023/06/29 09:55:59;;;;;;;0.20;0.20;;;21.80;99.90;;;;;;5031306;28;20170;-77
2023/06/29 09:58:29;;;;;;;0.20;0.20;;;21.80;99.90;;;;;;5048806;28;20036;-77
2023/06/29 10:00:58;;;;;;;0.20;0.20;;;21.70;99.90;;;;;;5031969;28;20041;-78
2023/06/29 10:03:25;;;;;;;0.20;0.20;;;21.70;99.90;;;;;;5050337;28;20051;-77
2023/06/29 10:05:54;;;;;;;0.20;0.20;;;21.60;99.90;;;;;;5049572;28;20041;-78
2023/06/29 10:08:22;;;;;;;0.20;0.20;;;21.60;99.90;;;;;;5032251;28;20072;-78
2023/06/29 10:10:51;;;;;;;0.20;0.20;;;21.70;99.90;;;;;;5028934;28;20666;-77
2023/06/29 10:13:18;;;;;;;0.20;0.20;;;21.70;99.90;;;;;;5010695;28;20056;-77
2023/06/29 10:15:44;;;;;;;0.20;0.20;;;21.70;99.90;;;;;;5038806;28;20044;-78
2023/06/29 10:18:16;;;;;;;0.20;0.20;;;21.70;99.90;;;;;;5027913;28;20072;-78
2023/06/29 10:20:44;;;;;;;0.20;0.20;;;21.70;99.90;;;;;;5029428;28;20057;-78
2023/06/29 10:23:12;;;;;;;0.20;0.20;;;21.80;99.90;;;;;;5011459;28;20049;-78
2023/06/29 10:25:44;;;;;;;0.20;0.20;;;21.80;99.90;;;;;;5042836;28;20549;-78
2023/06/29 10:28:12;;;;;;;0.13;0.13;;;21.80;99.90;;;;;;5029037;28;20051;-78
2023/06/29 10:30:46;;;;;;;0.20;0.20;;;21.80;99.90;;;;;;5032504;28;20182;-78
2023/06/29 10:33:12;;;;;;;0.20;0.20;;;21.80;99.90;;;;;;5048207;28;20401;-77
2023/06/29 10:35:39;;;;;;;0.20;0.20;;;21.80;99.90;;;;;;5047953;28;20178;-77
2023/06/29 10:38:12;;;;;;;0.20;0.20;;;21.70;99.90;;;;;;5046173;28;20053;-78
2023/06/29 10:40:48;;;;;;;0.20;0.20;;;21.70;99.90;;;;;;5048245;28;20086;-77
2023/06/29 10:43:14;;;;;;;0.20;0.20;;;21.60;99.90;;;;;;5047225;28;20480;-78
2023/06/29 10:45:40;;;;;;;0.20;0.20;;;21.60;99.90;;;;;;5032047;28;20052;-77
2023/06/29 10:48:08;;;;;;;0.20;0.20;;;21.50;99.90;;;;;;5047644;28;20041;-78
2023/06/29 10:50:45;;;;;;;0.20;0.20;;;21.50;99.90;;;;;;5049627;28;20044;-77
2023/06/29 10:53:13;;;;;;;0.25;0.25;;;21.50;99.90;;;;;;5048155;28;20493;-77
2023/06/29 10:55:46;;;;;;;0.20;0.20;;;21.40;99.90;;;;;;5048009;28;20037;-78
2023/06/29 10:58:19;;;;;;;0.20;0.20;;;21.40;99.90;;;;;;5046212;28;20045;-78
2023/06/29 11:00:45;;;;;;;0.20;0.20;;;21.30;99.90;;;;;;5047660;28;20106;-78
2023/06/29 11:03:12;;;;;;;0.20;0.20;;;21.30;99.90;;;;;;5047373;28;20381;-79
2023/06/29 11:05:38;;;;;;;0.20;0.20;;;21.40;99.90;;;;;;5048776;28;20476;-78
2023/06/29 11:08:08;;;;;;;0.20;0.20;;;21.30;99.90;;;;;;5047325;28;20048;-78
2023/06/29 11:10:34;;;;;;;0.20;0.20;;;21.30;99.90;;;;;;5032180;28;20037;-78
2023/06/29 11:13:00;;;;;;;0.20;0.20;;;21.40;99.90;;;;;;5027266;28;20478;-78
2023/06/29 11:15:27;;;;;;;0.20;0.20;;;21.40;99.90;;;;;;5028571;28;20037;-78
2023/06/29 11:17:53;;;;;;;0.20;0.20;;;21.50;99.90;;;;;;5039701;28;20057;-78
2023/06/29 11:20:22;;;;;;;0.20;0.20;;;21.50;99.90;;;;;;5040283;28;20041;-78
2023/06/29 11:22:51;;;;;;;0.20;0.20;;;21.60;99.90;;;;;;5033753;28;20045;-78
2023/06/29 11:25:17;;;;;;;0.20;0.20;;;21.60;99.90;;;;;;5048147;28;20090;-78
2023/06/29 11:27:44;;;;;;;0.20;0.20;;;21.70;99.90;;;;;;5046887;28;20116;-78
2023/06/29 11:30:10;;;;;;;0.20;0.20;;;21.70;99.90;;;;;;5048791;28;20120;-78
2023/06/29 11:32:37;;;;;;;0.20;0.20;;;21.80;99.90;;;;;;5047284;28;20063;-78
2023/06/29 11:35:05;;;;;;;0.20;0.20;;;21.80;99.90;;;;;;5064234;28;20044;-78
2023/06/29 11:37:32;;;;;;;0.20;0.20;;;21.80;99.90;;;;;;5072270;28;20091;-79
2023/06/29 11:39:58;;;;;;;0.20;0.20;;;21.80;99.90;;;;;;5036254;28;20079;-78
2023/06/29 11:42:25;;;;;;;0.20;0.20;;;21.80;99.90;;;;;;5050561;28;20094;-77
2023/06/29 11:45:04;;;;;;;0.20;0.20;;;21.80;99.90;;;;;;5051774;28;20087;-78
2023/06/29 11:47:30;;;;;;;0.30;0.30;;;21.80;99.90;;;;;;5051581;28;20041;-78
2023/06/29 11:50:00;;;;;;;0.20;0.20;;;21.80;99.90;;;;;;5052637;28;20124;-78
2023/06/29 11:52:31;;;;;;;0.20;0.20;;;21.80;99.90;;;;;;5071841;28;20125;-78
2023/06/29 11:55:01;;;;;;;0.20;0.20;;;21.80;99.90;;;;;;5072360;28;20135;-79
2023/06/29 11:57:30;;;;;;;0.20;0.20;;;21.80;99.90;;;;;;5066031;28;20045;-78
2023/06/29 11:59:56;;;;;;;0.30;0.30;;;21.80;99.90;;;;;;5033532;28;20095;-79
2023/06/29 12:02:23;;;;;;;0.20;0.20;;;21.90;99.90;;;;;;5031029;28;20049;-78
2023/06/29 12:04:59;;;;;;;0.20;0.20;;;22.00;99.90;;;;;;5014875;28;20145;-79
2023/06/29 12:07:35;;;;;;;0.20;0.20;;;22.00;99.90;;;;;;5032626;28;20044;-78
2023/06/29 12:10:10;;;;;;;0.20;0.20;;;22.20;99.90;;;;;;5014566;28;20148;-78
2023/06/29 12:12:45;;;;;;;0.20;0.20;;;22.20;99.90;;;;;;5020494;28;20047;-78
2023/06/29 12:15:21;;;;;;;0.38;0.38;;;22.20;99.90;;;;;;5034660;28;20045;-79
2023/06/29 12:17:50;;;;;;;0.20;0.20;;;22.20;99.90;;;;;;5052219;28;20056;-78
2023/06/29 12:20:18;;;;;;;0.20;0.20;;;22.20;99.90;;;;;;5048944;28;20052;-78
2023/06/29 12:22:44;;;;;;;0.20;0.20;;;22.20;99.90;;;;;;5022918;28;20420;-78
2023/06/29 12:25:12;;;;;;;0.20;0.20;;;22.20;99.90;;;;;;5052357;28;20048;-78
2023/06/29 12:27:40;;;;;;;0.20;0.20;;;22.30;99.90;;;;;;5032497;28;20127;-78
2023/06/29 12:30:06;;;;;;;0.20;0.20;;;22.30;99.90;;;;;;5034233;28;20037;-78
2023/06/29 12:32:32;;;;;;;0.20;0.20;;;22.40;99.90;;;;;;5052075;28;20045;-77
2023/06/29 12:34:58;;;;;;;0.20;0.20;;;22.50;99.90;;;;;;5033650;28;20060;-78
2023/06/29 12:37:24;;;;;;;0.20;0.20;;;22.70;99.90;;;;;;5033719;28;20045;-79
2023/06/29 12:39:49;;;;;;;0.20;0.20;;;22.90;99.90;;;;;;5034115;28;20052;-79
2023/06/29 12:42:15;;;;;;;0.20;0.20;;;23.20;99.90;;;;;;5032900;28;20049;-78
2023/06/29 12:44:41;;;;;;;0.20;0.20;;;23.40;99.90;;;;;;5050403;28;20041;-78
2023/06/29 12:47:06;;;;;;;0.20;0.20;;;23.50;99.90;;;;;;5032653;28;20049;-78